Rhawnhurst, Pennsylvania
Current Conditions -  °F | °C
As of 2:54 PM on Saturday 25 Oct 2014 (Local Time) from KPNE Reporting Station
Clear Clear  
Wind Chill: 69°   Ceiling: Unl
Heat Index: 69°   Visibility: 10mi
Dew Point: 41°   Wind: 17mph
Humidity: 36%   Direction: 250°WSW
Pressure: 29.77"   Gusts: 23mph
Location:  40.063°N, 75.0797°W
Report Text: KPNE 251854Z 25015G20KT 10SM CLR 21/05 A2977 RMK AO2 SLP079 T02060050
Loading
Personal Weather Stations






























Interactive Weather Map
Tropical Storm Tracking
New forecast layout! Learn more

10-Day Weather Forecast

Advertisements
Track Severe Weather on mobile